Lafayette, IN (47907)

8:04 AM EST on February 14, 2016 (GMT -0500)
residentual | | Change Station
CLOSE
Current Station
Personal Weather Station
Location: Lafayette, IN
Elevation: 663 ft
Nearby Weather Stations
Active Advisory: Winter Weather Advisory

Elev 663 ft 40.38 °N, 86.87 °W | Updated 2 minutes ago

Overcast
Overcast
15.8 °F
Feels Like 9 °F
N
4.0
Wind Variable Wind from SE
Gusts 10.0 mph

Today
High -- | Low -- °F
--% Chance of Precip.
Yesterday
High -- | Low -- °F
Precip. -- in
Pressure 30.43 in
Visibility 10.0 miles
Clouds Overcast 6500 ft
Windchill 9 °F
Dew Point 6 °F
Humidity 66%
Rainfall 0.00 in
Snow Depth Not available.
7:42 AM 6:21 PM
Waxing Crescent, 41% visible
METAR KLAF 141254Z 13010KT 10SM OVC065 M10/M17 A3039 RMK AO2 SLP302 T11001167
Pressure 30.43 in
Visibility 10.0 miles
Clouds Overcast 6500 ft
Windchill 9 °F
Dew Point 6 °F
Humidity 66%
Rainfall 0.00 in
Snow Depth Not available.
7:42 AM 6:21 PM
Waxing Crescent, 41% visible
METAR KLAF 141254Z 13010KT 10SM OVC065 M10/M17 A3039 RMK AO2 SLP302 T11001167

10-Day Weather Forecast

Almanac

Astronomy

Feb. 14, 2016 Rise Set
Actual Time
Civil Twilight
Nautical Twilight
Astronomical Twilight
Moon
Length of Visible Light
Length of Day
Tomorrow will be .
, % of the Moon is Illuminated

Today's Extremes

State Highs State Lows

Community

WunderPhotos

Upload Photos

1,892,777 photos uploaded!

WunderBlog® & News

Nearby

Air Quality

  Air Quality AQ Index Pollutant
Not available.

Snow Depth

Station Depth Elevation

Earthquake Activity

City Distance Mag. Time & Date
Minimum magnitude displayed is 2.5.

Coastal Water Temperatures

Place Temperature

Stations

Nearby Weather Stations

Station Location Temp. Windchill Dew Point Humidity Wind Precip. Elev Updated Type
                   

Watches & Warnings

Winter Weather Advisory
Issued: 3:30 AM EST Feb. 14, 2016 – National Weather Service

... Winter Weather Advisory remains in effect from 8 am this
morning to midnight EST tonight...

* timing... snow developing by mid morning Sunday and continuing
the rest of the day and gradually diminishing Sunday night.

* Main impact... snow covered roads and poor travel conditions.
Snow accumulations of up to three inches are possible.

Precautionary/preparedness actions...

A Winter Weather Advisory for snow means that periods of snow
will cause primarily travel difficulties. Be prepared for snow
covered roads and limited visibilities... and use caution while
driving.